createdAt,value
2022-11-28T00:04:26.384Z,7.40
2022-11-28T00:10:19.778Z,6.67
2022-11-28T00:16:16.665Z,7.60
2022-11-28T00:22:11.736Z,6.93
2022-11-28T00:28:05.211Z,7.30
2022-11-28T00:33:59.517Z,6.60
2022-11-28T00:39:54.673Z,6.50
2022-11-28T00:45:48.273Z,6.47
2022-11-28T00:51:41.976Z,7.27
2022-11-28T00:57:36.519Z,6.67
2022-11-28T01:03:30.163Z,5.57
2022-11-28T01:09:26.548Z,6.23
2022-11-28T01:15:21.615Z,5.70
2022-11-28T01:21:15.176Z,6.50
2022-11-28T01:27:08.253Z,6.03
2022-11-28T01:33:03.264Z,6.43
2022-11-28T01:38:56.956Z,6.20
2022-11-28T01:45:20.321Z,5.87
2022-11-28T01:51:15.671Z,6.33
2022-11-28T01:57:13.860Z,5.47
2022-11-28T02:03:11.335Z,5.90
2022-11-28T02:09:11.091Z,6.30
2022-11-28T02:15:27.457Z,6.30
2022-11-28T02:21:42.989Z,6.20
2022-11-28T02:28:13.888Z,5.83
2022-11-28T02:34:14.860Z,6.17
2022-11-28T02:40:15.603Z,6.37
2022-11-28T02:46:13.652Z,6.50
2022-11-28T02:52:13.680Z,6.10
2022-11-28T02:58:07.167Z,5.73
2022-11-28T03:04:20.473Z,6.80
2022-11-28T03:10:28.632Z,6.23
2022-11-28T03:16:28.385Z,5.30
2022-11-28T03:22:30.063Z,6.00
2022-11-28T03:28:29.349Z,6.77
2022-11-28T03:34:25.645Z,6.10
2022-11-28T03:40:23.420Z,6.10
2022-11-28T03:46:21.600Z,5.97
2022-11-28T03:52:20.005Z,5.80
2022-11-28T03:58:22.206Z,6.30
2022-11-28T04:04:24.361Z,6.30
2022-11-28T04:10:22.689Z,6.77
2022-11-28T04:16:22.246Z,5.93
2022-11-28T04:22:21.359Z,6.30
2022-11-28T04:28:19.449Z,7.10
2022-11-28T04:34:19.256Z,6.83
2022-11-28T04:40:15.091Z,6.07
2022-11-28T04:46:14.679Z,7.10
2022-11-28T04:52:13.071Z,6.73
2022-11-28T04:58:12.397Z,7.10
2022-11-28T05:04:06.155Z,7.37
2022-11-28T05:09:59.643Z,6.80
2022-11-28T05:15:54.659Z,6.60
2022-11-28T05:21:48.181Z,6.70
2022-11-28T05:27:41.733Z,6.90
2022-11-28T05:33:36.601Z,6.83
2022-11-28T05:39:30.055Z,6.57
2022-11-28T05:45:23.655Z,7.70
2022-11-28T05:51:19.094Z,7.70
2022-11-28T05:57:16.358Z,6.57
2022-11-28T06:03:09.833Z,7.40
2022-11-28T06:09:06.430Z,6.73
2022-11-28T06:14:59.895Z,7.10
2022-11-28T06:20:53.470Z,6.73
2022-11-28T06:26:48.382Z,6.40
2022-11-28T06:32:41.921Z,6.50
2022-11-28T06:38:35.959Z,6.60
2022-11-28T06:44:30.974Z,6.97
2022-11-28T06:50:24.395Z,6.37
2022-11-28T06:56:20.400Z,7.83
2022-11-28T07:02:14.888Z,7.87
2022-11-28T07:08:08.687Z,7.33
2022-11-28T07:14:03.735Z,7.40
2022-11-28T07:19:58.548Z,7.73
2022-11-28T07:25:52.011Z,7.40
2022-11-28T07:31:46.036Z,8.27
2022-11-28T07:37:40.919Z,9.10
2022-11-28T07:43:34.404Z,8.80
2022-11-28T07:49:28.152Z,9.50
2022-11-28T07:55:24.008Z,8.73
2022-11-28T08:01:19.185Z,9.00
2022-11-28T08:07:14.629Z,9.50
2022-11-28T08:13:09.518Z,9.67
2022-11-28T08:19:03.739Z,9.77
2022-11-28T08:24:57.265Z,9.30
2022-11-28T08:30:52.160Z,9.90
2022-11-28T08:36:47.656Z,9.60
2022-11-28T08:42:41.163Z,9.80
2022-11-28T08:48:36.100Z,8.97
2022-11-28T08:54:29.841Z,9.10
2022-11-28T09:00:23.691Z,10.10
2022-11-28T09:06:18.944Z,8.93
2022-11-28T09:12:12.038Z,9.33
2022-11-28T09:18:05.201Z,9.37
2022-11-28T09:23:59.625Z,8.63
2022-11-28T09:29:53.104Z,8.87
2022-11-28T09:35:46.652Z,8.67
2022-11-28T09:41:46.082Z,9.00
2022-11-28T09:47:43.288Z,8.27
2022-11-28T09:53:43.395Z,7.57
2022-11-28T09:59:38.241Z,7.80
2022-11-28T10:05:38.508Z,8.03
2022-11-28T10:11:44.068Z,8.67
2022-11-28T10:17:49.242Z,8.40
2022-11-28T10:23:46.255Z,8.73
2022-11-28T10:29:47.255Z,9.67
2022-11-28T10:35:47.954Z,7.90
2022-11-28T10:41:46.825Z,9.63
2022-11-28T10:48:37.999Z,9.00
2022-11-28T10:54:43.622Z,8.40
2022-11-28T11:00:38.695Z,8.70
2022-11-28T11:06:41.311Z,9.73
2022-11-28T11:12:43.990Z,7.37
2022-11-28T11:18:51.726Z,8.10
2022-11-28T11:24:45.230Z,8.30
2022-11-28T11:30:42.940Z,8.50
2022-11-28T11:36:38.637Z,7.63
2022-11-28T11:42:34.572Z,8.20
2022-11-28T11:48:37.277Z,8.40
2022-11-28T11:54:31.012Z,7.63
2022-11-28T12:00:28.808Z,7.70
2022-11-28T12:06:27.542Z,8.20
2022-11-28T12:12:25.273Z,8.27
2022-11-28T12:18:28.566Z,7.47
2022-11-28T12:24:32.809Z,7.70
2022-11-28T12:30:41.946Z,7.63
2022-11-28T12:36:42.898Z,8.30
2022-11-28T12:42:56.670Z,7.60
2022-11-28T12:49:04.420Z,7.40
2022-11-28T12:55:21.649Z,7.50
2022-11-28T13:01:31.371Z,6.97
2022-11-28T13:07:34.855Z,7.77
2022-11-28T13:13:33.633Z,7.60
2022-11-28T13:19:39.420Z,7.70
2022-11-28T13:25:41.212Z,6.90
2022-11-28T13:31:41.720Z,7.80
2022-11-28T13:44:03.386Z,8.30
2022-11-28T13:50:38.518Z,7.50
2022-11-28T13:56:33.352Z,7.80
2022-11-28T14:02:37.970Z,8.57
2022-11-28T14:08:36.944Z,8.07
2022-11-28T14:14:57.681Z,9.00
2022-11-28T14:20:58.751Z,10.03
2022-11-28T14:27:00.241Z,8.70
2022-11-28T14:32:59.793Z,8.67
2022-11-28T14:39:34.065Z,9.07
2022-11-28T14:45:45.966Z,9.03
2022-11-28T14:52:46.144Z,9.30
2022-11-28T14:58:35.349Z,9.77
2022-11-28T15:04:44.297Z,9.53
2022-11-28T15:10:49.458Z,10.67
2022-11-28T15:16:50.440Z,9.37
2022-11-28T15:22:47.062Z,10.10
2022-11-28T15:28:40.552Z,10.70
2022-11-28T15:34:37.533Z,11.67
2022-11-28T15:40:33.427Z,11.43
2022-11-28T15:46:31.520Z,11.93
2022-11-28T15:52:26.512Z,12.33
2022-11-28T15:58:21.415Z,11.30
2022-11-28T16:04:17.575Z,11.60
2022-11-28T16:10:25.476Z,11.55
2022-11-28T16:16:24.291Z,11.37
2022-11-28T16:22:20.518Z,12.40
2022-11-28T16:28:31.797Z,11.90
2022-11-28T16:34:46.676Z,12.10
2022-11-28T16:40:54.343Z,10.77
2022-11-28T16:46:53.306Z,12.40
2022-11-28T16:52:54.458Z,12.20
2022-11-28T16:58:47.947Z,12.37
2022-11-28T17:04:42.769Z,11.63
2022-11-28T17:10:36.259Z,11.70
2022-11-28T17:16:29.956Z,11.60
2022-11-28T17:22:26.684Z,11.27
2022-11-28T17:28:23.234Z,11.70
2022-11-28T17:34:21.276Z,11.23
2022-11-28T17:40:36.981Z,11.30
2022-11-28T17:46:30.458Z,12.37
2022-11-28T17:52:30.508Z,12.60
2022-11-28T17:58:26.254Z,11.97
2022-11-28T18:04:19.888Z,12.00
2022-11-28T18:10:13.734Z,12.17
2022-11-28T18:16:09.762Z,11.97
2022-11-28T18:22:03.312Z,11.97
2022-11-28T18:27:56.869Z,14.37
2022-11-28T18:33:52.927Z,12.33
2022-11-28T18:39:50.709Z,12.30
2022-11-28T18:45:44.431Z,11.63
2022-11-28T18:51:45.601Z,11.77
2022-11-28T18:57:41.828Z,12.63
2022-11-28T19:03:35.351Z,11.73
2022-11-28T19:09:30.629Z,10.97
2022-11-28T19:15:23.724Z,11.93
2022-11-28T19:21:19.276Z,11.70
2022-11-28T19:27:14.780Z,11.57
2022-11-28T19:33:09.442Z,11.80
2022-11-28T19:39:03.992Z,13.20
2022-11-28T19:44:58.873Z,12.17
2022-11-28T19:50:52.384Z,13.20
2022-11-28T19:56:45.840Z,11.90
2022-11-28T20:02:41.418Z,12.63
2022-11-28T20:08:34.986Z,12.60
2022-11-28T20:14:31.743Z,11.63
2022-11-28T20:20:27.376Z,11.60
2022-11-28T20:26:23.334Z,14.10
2022-11-28T20:32:17.189Z,13.17
2022-11-28T20:38:11.963Z,12.80
2022-11-28T20:44:05.631Z,12.97
2022-11-28T20:49:59.075Z,12.00
2022-11-28T20:56:00.513Z,12.40
2022-11-28T21:01:54.000Z,13.10
2022-11-28T21:07:47.219Z,13.50
2022-11-28T21:13:43.249Z,13.13
2022-11-28T21:19:36.692Z,12.70
2022-11-28T21:25:30.205Z,12.70
2022-11-28T21:31:27.096Z,12.37
2022-11-28T21:37:20.162Z,12.20
2022-11-28T21:43:13.623Z,13.07
2022-11-28T21:49:08.571Z,12.33
2022-11-28T21:55:06.366Z,15.50
2022-11-28T22:01:00.925Z,12.50
2022-11-28T22:06:55.783Z,11.20
2022-11-28T22:12:49.325Z,11.93
2022-11-28T22:18:43.296Z,12.93
2022-11-28T22:24:38.604Z,12.33
2022-11-28T22:30:32.224Z,13.50
2022-11-28T22:36:26.085Z,14.40
2022-11-28T22:42:24.584Z,13.23
2022-11-28T22:48:18.517Z,14.03
2022-11-28T22:54:13.752Z,14.30
2022-11-28T23:00:10.605Z,14.10
2022-11-28T23:06:06.292Z,13.30
2022-11-28T23:12:01.956Z,15.20
2022-11-28T23:17:57.400Z,13.80
2022-11-28T23:23:51.523Z,15.00
2022-11-28T23:29:45.257Z,15.67
2022-11-28T23:35:41.135Z,16.37
2022-11-28T23:41:34.761Z,16.50
2022-11-28T23:47:28.199Z,16.10
2022-11-28T23:53:23.203Z,15.97
2022-11-28T23:59:16.791Z,17.23
